sensor_id;sensor_type;location;lat;lon;timestamp;temperature;humidity
21815;DHT22;11069;48.988;8.450;2023-03-15T00:01:17;3.00;99.90
21815;DHT22;11069;48.988;8.450;2023-03-15T00:03:44;3.00;99.90
21815;DHT22;11069;48.988;8.450;2023-03-15T00:06:09;2.90;99.90
21815;DHT22;11069;48.988;8.450;2023-03-15T00:08:35;2.80;99.90
21815;DHT22;11069;48.988;8.450;2023-03-15T00:11:01;2.80;99.90
21815;DHT22;11069;48.988;8.450;2023-03-15T00:13:27;2.80;99.90
21815;DHT22;11069;48.988;8.450;2023-03-15T00:15:57;2.80;99.90
21815;DHT22;11069;48.988;8.450;2023-03-15T00:18:23;2.70;99.90
21815;DHT22;11069;48.988;8.450;2023-03-15T00:20:48;2.60;99.90
21815;DHT22;11069;48.988;8.450;2023-03-15T00:23:14;2.60;99.90
21815;DHT22;11069;48.988;8.450;2023-03-15T00:25:46;2.50;99.90
21815;DHT22;11069;48.988;8.450;2023-03-15T00:28:12;2.40;99.90
21815;DHT22;11069;48.988;8.450;2023-03-15T00:30:38;2.40;99.90
21815;DHT22;11069;48.988;8.450;2023-03-15T00:33:04;2.30;99.90
21815;DHT22;11069;48.988;8.450;2023-03-15T00:35:37;2.10;99.90
21815;DHT22;11069;48.988;8.450;2023-03-15T00:38:03;2.30;99.90
21815;DHT22;11069;48.988;8.450;2023-03-15T00:40:29;2.20;99.90
21815;DHT22;11069;48.988;8.450;2023-03-15T00:42:54;2.20;99.90
21815;DHT22;11069;48.988;8.450;2023-03-15T00:45:21;2.10;99.90
21815;DHT22;11069;48.988;8.450;2023-03-15T00:47:48;2.10;99.90
21815;DHT22;11069;48.988;8.450;2023-03-15T00:50:14;2.00;99.90
21815;DHT22;11069;48.988;8.450;2023-03-15T00:52:40;2.10;99.90
21815;DHT22;11069;48.988;8.450;2023-03-15T00:55:10;2.00;99.90
21815;DHT22;11069;48.988;8.450;2023-03-15T00:57:38;2.10;99.90
21815;DHT22;11069;48.988;8.450;2023-03-15T01:00:06;2.10;99.90
21815;DHT22;11069;48.988;8.450;2023-03-15T01:02:33;2.10;99.90
21815;DHT22;11069;48.988;8.450;2023-03-15T01:04:58;2.10;99.90
21815;DHT22;11069;48.988;8.450;2023-03-15T01:07:26;2.10;99.90
21815;DHT22;11069;48.988;8.450;2023-03-15T01:09:51;2.10;99.90
21815;DHT22;11069;48.988;8.450;2023-03-15T01:12:17;2.00;99.90
21815;DHT22;11069;48.988;8.450;2023-03-15T01:14:43;1.90;99.90
21815;DHT22;11069;48.988;8.450;2023-03-15T01:17:08;2.00;99.90
21815;DHT22;11069;48.988;8.450;2023-03-15T01:19:34;2.00;99.90
21815;DHT22;11069;48.988;8.450;2023-03-15T01:21:59;1.90;99.90
21815;DHT22;11069;48.988;8.450;2023-03-15T01:24:25;1.90;99.90
21815;DHT22;11069;48.988;8.450;2023-03-15T01:26:51;1.90;99.90
21815;DHT22;11069;48.988;8.450;2023-03-15T01:29:16;1.90;99.90
21815;DHT22;11069;48.988;8.450;2023-03-15T01:31:42;1.80;99.90
21815;DHT22;11069;48.988;8.450;2023-03-15T01:34:08;1.80;99.90
21815;DHT22;11069;48.988;8.450;2023-03-15T01:36:34;1.90;99.90
21815;DHT22;11069;48.988;8.450;2023-03-15T01:39:00;1.90;99.90
21815;DHT22;11069;48.988;8.450;2023-03-15T01:41:25;1.80;99.90
21815;DHT22;11069;48.988;8.450;2023-03-15T01:43:51;1.70;99.90
21815;DHT22;11069;48.988;8.450;2023-03-15T01:46:27;1.70;99.90
21815;DHT22;11069;48.988;8.450;2023-03-15T01:49:12;1.60;99.90
21815;DHT22;11069;48.988;8.450;2023-03-15T01:51:52;1.70;99.90
21815;DHT22;11069;48.988;8.450;2023-03-15T01:57:08;1.60;99.90
21815;DHT22;11069;48.988;8.450;2023-03-15T01:59:42;1.60;99.90
21815;DHT22;11069;48.988;8.450;2023-03-15T02:02:08;1.50;99.90
21815;DHT22;11069;48.988;8.450;2023-03-15T02:04:47;1.40;99.90
21815;DHT22;11069;48.988;8.450;2023-03-15T02:07:15;1.50;99.90
21815;DHT22;11069;48.988;8.450;2023-03-15T02:10:03;1.50;99.90
21815;DHT22;11069;48.988;8.450;2023-03-15T02:12:31;1.40;99.90
21815;DHT22;11069;48.988;8.450;2023-03-15T02:14:59;1.40;99.90
21815;DHT22;11069;48.988;8.450;2023-03-15T02:17:35;1.40;99.90
21815;DHT22;11069;48.988;8.450;2023-03-15T02:20:22;1.60;99.90
21815;DHT22;11069;48.988;8.450;2023-03-15T02:23:11;1.60;99.90
21815;DHT22;11069;48.988;8.450;2023-03-15T02:28:12;1.60;99.90
21815;DHT22;11069;48.988;8.450;2023-03-15T02:30:39;1.60;99.90
21815;DHT22;11069;48.988;8.450;2023-03-15T02:33:10;1.60;99.90
21815;DHT22;11069;48.988;8.450;2023-03-15T02:35:39;1.50;99.90
21815;DHT22;11069;48.988;8.450;2023-03-15T02:38:04;1.50;99.90
21815;DHT22;11069;48.988;8.450;2023-03-15T02:40:30;1.50;99.90
21815;DHT22;11069;48.988;8.450;2023-03-15T02:42:59;1.50;99.90
21815;DHT22;11069;48.988;8.450;2023-03-15T02:45:26;1.50;99.90
21815;DHT22;11069;48.988;8.450;2023-03-15T02:47:53;1.50;99.90
21815;DHT22;11069;48.988;8.450;2023-03-15T02:50:19;1.40;99.90
21815;DHT22;11069;48.988;8.450;2023-03-15T02:52:44;1.40;99.90
21815;DHT22;11069;48.988;8.450;2023-03-15T02:55:10;1.40;99.90
21815;DHT22;11069;48.988;8.450;2023-03-15T02:57:36;1.40;99.90
21815;DHT22;11069;48.988;8.450;2023-03-15T03:00:03;1.30;99.90
21815;DHT22;11069;48.988;8.450;2023-03-15T03:02:43;1.30;99.90
21815;DHT22;11069;48.988;8.450;2023-03-15T03:05:13;1.20;99.90
21815;DHT22;11069;48.988;8.450;2023-03-15T03:07:39;1.20;99.90
21815;DHT22;11069;48.988;8.450;2023-03-15T03:10:08;1.20;99.90
21815;DHT22;11069;48.988;8.450;2023-03-15T03:12:34;1.20;99.90
21815;DHT22;11069;48.988;8.450;2023-03-15T03:14:59;1.20;99.90
21815;DHT22;11069;48.988;8.450;2023-03-15T03:17:27;1.20;99.90
21815;DHT22;11069;48.988;8.450;2023-03-15T03:19:52;1.10;99.90
21815;DHT22;11069;48.988;8.450;2023-03-15T03:22:18;1.20;99.90
21815;DHT22;11069;48.988;8.450;2023-03-15T03:24:44;1.20;99.90
21815;DHT22;11069;48.988;8.450;2023-03-15T03:27:13;1.10;99.90
21815;DHT22;11069;48.988;8.450;2023-03-15T03:29:41;1.20;99.90
21815;DHT22;11069;48.988;8.450;2023-03-15T03:32:07;1.10;99.90
21815;DHT22;11069;48.988;8.450;2023-03-15T03:34:34;1.10;99.90
21815;DHT22;11069;48.988;8.450;2023-03-15T03:36:59;1.10;99.90
21815;DHT22;11069;48.988;8.450;2023-03-15T03:39:25;1.20;99.90
21815;DHT22;11069;48.988;8.450;2023-03-15T03:41:51;1.10;99.90
21815;DHT22;11069;48.988;8.450;2023-03-15T03:44:16;1.10;99.90
21815;DHT22;11069;48.988;8.450;2023-03-15T03:46:42;1.00;99.90
21815;DHT22;11069;48.988;8.450;2023-03-15T03:49:08;1.10;99.90
21815;DHT22;11069;48.988;8.450;2023-03-15T03:51:33;1.10;99.90
21815;DHT22;11069;48.988;8.450;2023-03-15T03:54:00;1.10;99.90
21815;DHT22;11069;48.988;8.450;2023-03-15T03:56:26;1.20;99.90
21815;DHT22;11069;48.988;8.450;2023-03-15T03:58:51;1.20;99.90
21815;DHT22;11069;48.988;8.450;2023-03-15T04:01:17;1.10;99.90
21815;DHT22;11069;48.988;8.450;2023-03-15T04:03:43;1.00;99.90
21815;DHT22;11069;48.988;8.450;2023-03-15T04:06:08;1.00;99.90
21815;DHT22;11069;48.988;8.450;2023-03-15T04:08:34;1.00;99.90
21815;DHT22;11069;48.988;8.450;2023-03-15T04:11:00;1.00;99.90
21815;DHT22;11069;48.988;8.450;2023-03-15T04:13:28;0.90;99.90
21815;DHT22;11069;48.988;8.450;2023-03-15T04:15:54;1.00;99.90
21815;DHT22;11069;48.988;8.450;2023-03-15T04:18:25;1.00;99.90
21815;DHT22;11069;48.988;8.450;2023-03-15T04:20:51;0.90;99.90
21815;DHT22;11069;48.988;8.450;2023-03-15T04:23:19;0.90;99.90
21815;DHT22;11069;48.988;8.450;2023-03-15T04:25:47;0.80;99.90
21815;DHT22;11069;48.988;8.450;2023-03-15T04:28:14;0.80;99.90
21815;DHT22;11069;48.988;8.450;2023-03-15T04:30:39;0.80;99.90
21815;DHT22;11069;48.988;8.450;2023-03-15T04:33:08;0.90;99.90
21815;DHT22;11069;48.988;8.450;2023-03-15T04:35:35;0.80;99.90
21815;DHT22;11069;48.988;8.450;2023-03-15T04:38:01;0.80;99.90
21815;DHT22;11069;48.988;8.450;2023-03-15T04:40:29;0.80;99.90
21815;DHT22;11069;48.988;8.450;2023-03-15T04:43:00;0.80;99.90
21815;DHT22;11069;48.988;8.450;2023-03-15T04:45:26;0.70;99.90
21815;DHT22;11069;48.988;8.450;2023-03-15T04:47:53;0.80;99.90
21815;DHT22;11069;48.988;8.450;2023-03-15T04:50:19;0.80;99.90
21815;DHT22;11069;48.988;8.450;2023-03-15T04:52:45;0.80;99.90
21815;DHT22;11069;48.988;8.450;2023-03-15T04:55:11;0.70;99.90
21815;DHT22;11069;48.988;8.450;2023-03-15T04:57:37;0.60;99.90
21815;DHT22;11069;48.988;8.450;2023-03-15T05:00:04;0.60;99.90
21815;DHT22;11069;48.988;8.450;2023-03-15T05:02:32;0.60;99.90
21815;DHT22;11069;48.988;8.450;2023-03-15T05:04:57;0.70;99.90
21815;DHT22;11069;48.988;8.450;2023-03-15T05:07:23;0.70;99.90
21815;DHT22;11069;48.988;8.450;2023-03-15T05:09:48;0.60;99.90
21815;DHT22;11069;48.988;8.450;2023-03-15T05:12:14;0.60;99.90
21815;DHT22;11069;48.988;8.450;2023-03-15T05:14:39;0.60;99.90
21815;DHT22;11069;48.988;8.450;2023-03-15T05:17:05;0.60;99.90
21815;DHT22;11069;48.988;8.450;2023-03-15T05:19:31;0.60;99.90
21815;DHT22;11069;48.988;8.450;2023-03-15T05:22:00;0.70;99.90
21815;DHT22;11069;48.988;8.450;2023-03-15T05:24:26;0.60;99.90
21815;DHT22;11069;48.988;8.450;2023-03-15T05:26:52;0.60;99.90
21815;DHT22;11069;48.988;8.450;2023-03-15T05:29:19;0.50;99.90
21815;DHT22;11069;48.988;8.450;2023-03-15T05:31:46;0.50;99.90
21815;DHT22;11069;48.988;8.450;2023-03-15T05:34:11;0.40;99.90
21815;DHT22;11069;48.988;8.450;2023-03-15T05:36:37;0.30;99.90
21815;DHT22;11069;48.988;8.450;2023-03-15T05:39:03;0.40;99.90
21815;DHT22;11069;48.988;8.450;2023-03-15T05:41:28;0.40;99.90
21815;DHT22;11069;48.988;8.450;2023-03-15T05:43:54;0.40;99.90
21815;DHT22;11069;48.988;8.450;2023-03-15T05:46:20;0.30;99.90
21815;DHT22;11069;48.988;8.450;2023-03-15T05:48:47;0.30;99.90
21815;DHT22;11069;48.988;8.450;2023-03-15T05:51:13;0.30;99.90
21815;DHT22;11069;48.988;8.450;2023-03-15T05:53:39;0.30;99.90
21815;DHT22;11069;48.988;8.450;2023-03-15T05:56:04;0.30;99.90
21815;DHT22;11069;48.988;8.450;2023-03-15T05:58:30;0.30;99.90
21815;DHT22;11069;48.988;8.450;2023-03-15T06:00:56;0.30;99.90
21815;DHT22;11069;48.988;8.450;2023-03-15T06:03:21;0.30;99.90
21815;DHT22;11069;48.988;8.450;2023-03-15T06:05:47;0.30;99.90
21815;DHT22;11069;48.988;8.450;2023-03-15T06:08:12;0.30;99.90
21815;DHT22;11069;48.988;8.450;2023-03-15T06:10:38;0.30;99.90
21815;DHT22;11069;48.988;8.450;2023-03-15T06:13:04;0.60;99.90
21815;DHT22;11069;48.988;8.450;2023-03-15T06:15:30;1.10;99.90
21815;DHT22;11069;48.988;8.450;2023-03-15T06:17:55;1.60;99.90
21815;DHT22;11069;48.988;8.450;2023-03-15T06:20:21;2.00;99.90
21815;DHT22;11069;48.988;8.450;2023-03-15T06:22:47;2.50;99.90
21815;DHT22;11069;48.988;8.450;2023-03-15T06:25:13;2.30;99.90
21815;DHT22;11069;48.988;8.450;2023-03-15T06:27:38;2.00;99.90
21815;DHT22;11069;48.988;8.450;2023-03-15T06:30:04;1.80;99.90
21815;DHT22;11069;48.988;8.450;2023-03-15T06:32:30;1.60;99.90
21815;DHT22;11069;48.988;8.450;2023-03-15T06:34:56;1.40;99.90
21815;DHT22;11069;48.988;8.450;2023-03-15T06:37:21;1.40;99.90
21815;DHT22;11069;48.988;8.450;2023-03-15T06:39:47;1.50;99.90
21815;DHT22;11069;48.988;8.450;2023-03-15T06:42:13;1.50;99.90
21815;DHT22;11069;48.988;8.450;2023-03-15T06:44:39;1.60;99.90
21815;DHT22;11069;48.988;8.450;2023-03-15T06:47:06;1.60;99.90
21815;DHT22;11069;48.988;8.450;2023-03-15T06:49:32;1.70;99.90
21815;DHT22;11069;48.988;8.450;2023-03-15T06:51:58;1.90;99.90
21815;DHT22;11069;48.988;8.450;2023-03-15T06:54:24;1.90;99.90
21815;DHT22;11069;48.988;8.450;2023-03-15T06:56:50;2.10;99.90
21815;DHT22;11069;48.988;8.450;2023-03-15T06:59:16;2.20;99.90
21815;DHT22;11069;48.988;8.450;2023-03-15T07:01:41;2.30;99.90
21815;DHT22;11069;48.988;8.450;2023-03-15T07:04:07;2.30;99.90
21815;DHT22;11069;48.988;8.450;2023-03-15T07:06:34;2.40;99.90
21815;DHT22;11069;48.988;8.450;2023-03-15T07:09:00;2.60;99.90
21815;DHT22;11069;48.988;8.450;2023-03-15T07:11:26;2.70;99.90
21815;DHT22;11069;48.988;8.450;2023-03-15T07:13:51;3.10;99.90
21815;DHT22;11069;48.988;8.450;2023-03-15T07:16:17;4.00;99.90
21815;DHT22;11069;48.988;8.450;2023-03-15T07:18:43;4.60;99.90
21815;DHT22;11069;48.988;8.450;2023-03-15T07:21:08;5.30;99.90
21815;DHT22;11069;48.988;8.450;2023-03-15T07:23:34;6.00;99.90
21815;DHT22;11069;48.988;8.450;2023-03-15T07:25:59;5.90;99.90
21815;DHT22;11069;48.988;8.450;2023-03-15T07:28:26;6.00;99.90
21815;DHT22;11069;48.988;8.450;2023-03-15T07:33:18;6.10;99.90
21815;DHT22;11069;48.988;8.450;2023-03-15T07:35:47;5.80;99.90
21815;DHT22;11069;48.988;8.450;2023-03-15T07:38:13;5.30;99.90
21815;DHT22;11069;48.988;8.450;2023-03-15T07:40:38;5.00;99.90
21815;DHT22;11069;48.988;8.450;2023-03-15T07:43:04;4.80;99.90
21815;DHT22;11069;48.988;8.450;2023-03-15T07:45:31;5.30;99.90
21815;DHT22;11069;48.988;8.450;2023-03-15T07:47:56;6.20;99.90
21815;DHT22;11069;48.988;8.450;2023-03-15T07:50:22;6.20;99.90
21815;DHT22;11069;48.988;8.450;2023-03-15T07:52:48;6.10;99.90
21815;DHT22;11069;48.988;8.450;2023-03-15T07:55:13;5.60;99.90
21815;DHT22;11069;48.988;8.450;2023-03-15T07:57:39;5.60;99.90
21815;DHT22;11069;48.988;8.450;2023-03-15T08:00:05;5.40;99.90
21815;DHT22;11069;48.988;8.450;2023-03-15T08:02:31;5.40;99.90
21815;DHT22;11069;48.988;8.450;2023-03-15T08:04:56;5.40;99.90
21815;DHT22;11069;48.988;8.450;2023-03-15T08:07:23;5.60;99.90
21815;DHT22;11069;48.988;8.450;2023-03-15T08:09:48;5.60;99.90
21815;DHT22;11069;48.988;8.450;2023-03-15T08:12:14;5.60;99.90
21815;DHT22;11069;48.988;8.450;2023-03-15T08:14:39;5.50;99.90
21815;DHT22;11069;48.988;8.450;2023-03-15T08:17:05;5.70;99.90
21815;DHT22;11069;48.988;8.450;2023-03-15T08:19:31;6.10;99.90
21815;DHT22;11069;48.988;8.450;2023-03-15T08:21:56;6.60;99.90
21815;DHT22;11069;48.988;8.450;2023-03-15T08:24:22;7.70;99.90
21815;DHT22;11069;48.988;8.450;2023-03-15T08:26:47;8.50;99.90
21815;DHT22;11069;48.988;8.450;2023-03-15T08:29:13;8.40;99.90
21815;DHT22;11069;48.988;8.450;2023-03-15T08:31:39;8.50;99.90
21815;DHT22;11069;48.988;8.450;2023-03-15T08:34:06;8.20;99.90
21815;DHT22;11069;48.988;8.450;2023-03-15T08:36:32;8.00;99.90
21815;DHT22;11069;48.988;8.450;2023-03-15T08:38:58;7.50;99.90
21815;DHT22;11069;48.988;8.450;2023-03-15T08:41:23;7.00;99.90
21815;DHT22;11069;48.988;8.450;2023-03-15T08:43:49;7.00;99.90
21815;DHT22;11069;48.988;8.450;2023-03-15T08:46:14;7.30;99.90
21815;DHT22;11069;48.988;8.450;2023-03-15T08:48:41;7.50;99.90
21815;DHT22;11069;48.988;8.450;2023-03-15T08:51:07;7.70;99.90
21815;DHT22;11069;48.988;8.450;2023-03-15T08:53:33;8.00;99.90
21815;DHT22;11069;48.988;8.450;2023-03-15T08:55:59;8.30;99.90
21815;DHT22;11069;48.988;8.450;2023-03-15T08:58:25;8.40;99.90
21815;DHT22;11069;48.988;8.450;2023-03-15T09:00:51;8.00;99.90
21815;DHT22;11069;48.988;8.450;2023-03-15T09:03:17;7.90;99.90
21815;DHT22;11069;48.988;8.450;2023-03-15T09:05:43;8.30;99.90
21815;DHT22;11069;48.988;8.450;2023-03-15T09:08:09;8.50;99.90
21815;DHT22;11069;48.988;8.450;2023-03-15T09:10:35;8.70;99.90
21815;DHT22;11069;48.988;8.450;2023-03-15T09:13:00;8.70;99.90
21815;DHT22;11069;48.988;8.450;2023-03-15T09:15:26;8.60;99.90
21815;DHT22;11069;48.988;8.450;2023-03-15T09:17:52;8.30;99.90
21815;DHT22;11069;48.988;8.450;2023-03-15T09:20:18;7.40;99.70
21815;DHT22;11069;48.988;8.450;2023-03-15T09:22:54;7.10;99.90
21815;DHT22;11069;48.988;8.450;2023-03-15T09:25:20;7.50;99.90
21815;DHT22;11069;48.988;8.450;2023-03-15T09:27:47;8.30;99.90
21815;DHT22;11069;48.988;8.450;2023-03-15T09:30:13;9.00;99.50
21815;DHT22;11069;48.988;8.450;2023-03-15T09:32:39;9.50;98.70
21815;DHT22;11069;48.988;8.450;2023-03-15T09:35:07;9.90;97.20
21815;DHT22;11069;48.988;8.450;2023-03-15T09:37:35;9.30;97.20
21815;DHT22;11069;48.988;8.450;2023-03-15T09:40:00;8.80;97.70
21815;DHT22;11069;48.988;8.450;2023-03-15T09:50:52;9.20;98.30
21815;DHT22;11069;48.988;8.450;2023-03-15T09:53:27;9.20;97.80
21815;DHT22;11069;48.988;8.450;2023-03-15T09:55:53;9.30;98.20
21815;DHT22;11069;48.988;8.450;2023-03-15T09:58:25;9.20;97.40
21815;DHT22;11069;48.988;8.450;2023-03-15T10:00:59;9.30;96.70
21815;DHT22;11069;48.988;8.450;2023-03-15T10:06:16;9.40;97.60
21815;DHT22;11069;48.988;8.450;2023-03-15T10:08:46;9.00;96.40
21815;DHT22;11069;48.988;8.450;2023-03-15T10:11:26;8.80;97.80
21815;DHT22;11069;48.988;8.450;2023-03-15T10:16:46;9.70;97.70
21815;DHT22;11069;48.988;8.450;2023-03-15T10:22:28;10.50;97.30
21815;DHT22;11069;48.988;8.450;2023-03-15T10:25:10;9.80;96.70
21815;DHT22;11069;48.988;8.450;2023-03-15T10:27:48;9.50;97.70
21815;DHT22;11069;48.988;8.450;2023-03-15T10:35:24;8.30;98.00
21815;DHT22;11069;48.988;8.450;2023-03-15T10:37:50;8.40;97.30
21815;DHT22;11069;48.988;8.450;2023-03-15T10:43:25;8.60;97.10
21815;DHT22;11069;48.988;8.450;2023-03-15T10:46:20;8.60;97.80
21815;DHT22;11069;48.988;8.450;2023-03-15T10:48:59;8.50;98.60
21815;DHT22;11069;48.988;8.450;2023-03-15T10:51:28;8.60;99.10
21815;DHT22;11069;48.988;8.450;2023-03-15T10:56:26;7.80;95.40
21815;DHT22;11069;48.988;8.450;2023-03-15T10:58:55;7.90;97.10
21815;DHT22;11069;48.988;8.450;2023-03-15T11:01:29;8.00;95.80
21815;DHT22;11069;48.988;8.450;2023-03-15T11:04:17;7.80;95.30
21815;DHT22;11069;48.988;8.450;2023-03-15T11:09:25;7.90;97.90
21815;DHT22;11069;48.988;8.450;2023-03-15T11:14:20;7.60;98.30
21815;DHT22;11069;48.988;8.450;2023-03-15T11:16:51;6.80;99.90
21815;DHT22;11069;48.988;8.450;2023-03-15T11:19:21;6.70;99.90
21815;DHT22;11069;48.988;8.450;2023-03-15T11:21:49;6.60;99.90
21815;DHT22;11069;48.988;8.450;2023-03-15T11:24:44;6.60;99.90
21815;DHT22;11069;48.988;8.450;2023-03-15T11:27:12;6.30;99.90
21815;DHT22;11069;48.988;8.450;2023-03-15T11:29:46;5.90;99.90
21815;DHT22;11069;48.988;8.450;2023-03-15T11:32:14;5.80;99.90
21815;DHT22;11069;48.988;8.450;2023-03-15T11:34:45;5.70;99.90
21815;DHT22;11069;48.988;8.450;2023-03-15T11:38:00;5.80;99.90
21815;DHT22;11069;48.988;8.450;2023-03-15T11:40:04;5.80;99.90
21815;DHT22;11069;48.988;8.450;2023-03-15T11:48:49;6.00;99.90
21815;DHT22;11069;48.988;8.450;2023-03-15T11:50:52;6.00;99.90
21815;DHT22;11069;48.988;8.450;2023-03-15T11:53:20;5.80;99.90
21815;DHT22;11069;48.988;8.450;2023-03-15T11:55:50;5.80;99.90
21815;DHT22;11069;48.988;8.450;2023-03-15T11:58:33;5.90;99.90
21815;DHT22;11069;48.988;8.450;2023-03-15T12:01:04;5.90;99.90
21815;DHT22;11069;48.988;8.450;2023-03-15T12:03:41;5.80;99.90
21815;DHT22;11069;48.988;8.450;2023-03-15T12:06:34;5.90;99.90
21815;DHT22;11069;48.988;8.450;2023-03-15T12:09:00;5.90;99.90
21815;DHT22;11069;48.988;8.450;2023-03-15T12:16:31;6.60;99.90
21815;DHT22;11069;48.988;8.450;2023-03-15T12:19:23;6.70;99.90
21815;DHT22;11069;48.988;8.450;2023-03-15T12:21:51;6.80;99.90
21815;DHT22;11069;48.988;8.450;2023-03-15T12:24:26;7.00;99.90
21815;DHT22;11069;48.988;8.450;2023-03-15T12:27:16;7.40;99.90
21815;DHT22;11069;48.988;8.450;2023-03-15T12:29:44;8.50;99.90
21815;DHT22;11069;48.988;8.450;2023-03-15T12:32:17;8.90;99.90
21815;DHT22;11069;48.988;8.450;2023-03-15T12:34:52;9.00;99.90
21815;DHT22;11069;48.988;8.450;2023-03-15T12:37:31;9.40;99.90
21815;DHT22;11069;48.988;8.450;2023-03-15T12:53:03;8.60;99.90
21815;DHT22;11069;48.988;8.450;2023-03-15T12:55:32;8.30;99.90
21815;DHT22;11069;48.988;8.450;2023-03-15T12:57:59;7.90;99.90
21815;DHT22;11069;48.988;8.450;2023-03-15T13:00:28;7.90;99.90
21815;DHT22;11069;48.988;8.450;2023-03-15T13:03:04;8.00;99.90
21815;DHT22;11069;48.988;8.450;2023-03-15T13:05:34;8.30;99.90
21815;DHT22;11069;48.988;8.450;2023-03-15T13:27:12;8.60;99.90
21815;DHT22;11069;48.988;8.450;2023-03-15T13:29:40;8.40;99.90
21815;DHT22;11069;48.988;8.450;2023-03-15T13:32:15;7.90;99.90
21815;DHT22;11069;48.988;8.450;2023-03-15T13:34:44;7.60;99.90
21815;DHT22;11069;48.988;8.450;2023-03-15T13:37:36;7.40;99.90
21815;DHT22;11069;48.988;8.450;2023-03-15T13:40:12;6.50;99.90
21815;DHT22;11069;48.988;8.450;2023-03-15T13:42:39;5.70;99.90
21815;DHT22;11069;48.988;8.450;2023-03-15T13:45:09;5.50;99.90
21815;DHT22;11069;48.988;8.450;2023-03-15T13:47:35;5.50;99.90
21815;DHT22;11069;48.988;8.450;2023-03-15T13:50:05;5.60;99.90
21815;DHT22;11069;48.988;8.450;2023-03-15T13:52:31;5.70;99.90
21815;DHT22;11069;48.988;8.450;2023-03-15T13:54:56;5.80;99.90
21815;DHT22;11069;48.988;8.450;2023-03-15T13:57:23;5.90;99.90
21815;DHT22;11069;48.988;8.450;2023-03-15T13:59:57;6.00;99.90
21815;DHT22;11069;48.988;8.450;2023-03-15T14:05:16;6.20;99.90
21815;DHT22;11069;48.988;8.450;2023-03-15T14:07:47;6.20;99.90
21815;DHT22;11069;48.988;8.450;2023-03-15T14:13:15;5.80;99.90
21815;DHT22;11069;48.988;8.450;2023-03-15T14:15:42;5.60;99.90
21815;DHT22;11069;48.988;8.450;2023-03-15T14:20:45;5.50;99.90
21815;DHT22;11069;48.988;8.450;2023-03-15T14:23:14;5.60;99.90
21815;DHT22;11069;48.988;8.450;2023-03-15T14:25:41;5.70;99.90
21815;DHT22;11069;48.988;8.450;2023-03-15T14:28:13;5.80;99.90
21815;DHT22;11069;48.988;8.450;2023-03-15T14:30:40;5.90;99.90
21815;DHT22;11069;48.988;8.450;2023-03-15T14:33:20;6.10;99.90
21815;DHT22;11069;48.988;8.450;2023-03-15T14:35:46;6.30;99.90
21815;DHT22;11069;48.988;8.450;2023-03-15T14:38:23;6.20;99.90
21815;DHT22;11069;48.988;8.450;2023-03-15T14:40:51;6.00;99.90
21815;DHT22;11069;48.988;8.450;2023-03-15T14:43:17;5.70;99.90
21815;DHT22;11069;48.988;8.450;2023-03-15T14:45:45;5.80;99.90
21815;DHT22;11069;48.988;8.450;2023-03-15T14:48:25;5.90;99.90
21815;DHT22;11069;48.988;8.450;2023-03-15T14:50:52;6.10;99.90
21815;DHT22;11069;48.988;8.450;2023-03-15T14:53:23;6.20;99.90
21815;DHT22;11069;48.988;8.450;2023-03-15T14:55:50;6.10;99.90
21815;DHT22;11069;48.988;8.450;2023-03-15T14:58:18;6.00;99.90
21815;DHT22;11069;48.988;8.450;2023-03-15T15:00:50;6.00;99.90
21815;DHT22;11069;48.988;8.450;2023-03-15T15:03:19;6.00;99.90
21815;DHT22;11069;48.988;8.450;2023-03-15T15:05:47;6.10;99.90
21815;DHT22;11069;48.988;8.450;2023-03-15T15:08:15;6.10;99.90
21815;DHT22;11069;48.988;8.450;2023-03-15T15:10:44;6.10;99.90
21815;DHT22;11069;48.988;8.450;2023-03-15T15:13:16;6.10;99.90
21815;DHT22;11069;48.988;8.450;2023-03-15T15:15:42;6.20;99.90
21815;DHT22;11069;48.988;8.450;2023-03-15T15:18:08;6.30;99.90
21815;DHT22;11069;48.988;8.450;2023-03-15T15:20:33;6.40;99.90
21815;DHT22;11069;48.988;8.450;2023-03-15T15:22:59;6.10;99.90
21815;DHT22;11069;48.988;8.450;2023-03-15T15:25:25;6.20;99.90
21815;DHT22;11069;48.988;8.450;2023-03-15T15:27:54;6.10;99.90
21815;DHT22;11069;48.988;8.450;2023-03-15T15:30:22;6.10;99.90
21815;DHT22;11069;48.988;8.450;2023-03-15T15:32:48;6.30;99.90
21815;DHT22;11069;48.988;8.450;2023-03-15T15:35:16;6.30;99.90
21815;DHT22;11069;48.988;8.450;2023-03-15T15:37:44;6.30;99.90
21815;DHT22;11069;48.988;8.450;2023-03-15T15:40:16;6.30;99.90
21815;DHT22;11069;48.988;8.450;2023-03-15T15:42:43;6.20;99.90
21815;DHT22;11069;48.988;8.450;2023-03-15T15:45:11;6.20;99.90
21815;DHT22;11069;48.988;8.450;2023-03-15T15:47:38;6.40;99.90
21815;DHT22;11069;48.988;8.450;2023-03-15T15:50:04;6.40;99.90
21815;DHT22;11069;48.988;8.450;2023-03-15T15:52:30;6.50;99.90
21815;DHT22;11069;48.988;8.450;2023-03-15T15:54:55;6.70;99.90
21815;DHT22;11069;48.988;8.450;2023-03-15T15:57:21;7.00;99.90
21815;DHT22;11069;48.988;8.450;2023-03-15T15:59:51;7.00;99.90
21815;DHT22;11069;48.988;8.450;2023-03-15T16:02:17;7.00;99.90
21815;DHT22;11069;48.988;8.450;2023-03-15T16:04:47;7.00;99.90
21815;DHT22;11069;48.988;8.450;2023-03-15T16:07:13;7.30;99.90
21815;DHT22;11069;48.988;8.450;2023-03-15T16:09:40;7.30;99.90
21815;DHT22;11069;48.988;8.450;2023-03-15T16:12:15;7.10;99.90
21815;DHT22;11069;48.988;8.450;2023-03-15T16:14:42;7.20;99.90
21815;DHT22;11069;48.988;8.450;2023-03-15T16:17:19;7.30;99.90
21815;DHT22;11069;48.988;8.450;2023-03-15T16:19:49;7.00;99.90
21815;DHT22;11069;48.988;8.450;2023-03-15T16:22:15;6.70;99.90
21815;DHT22;11069;48.988;8.450;2023-03-15T16:24:44;6.70;99.90
21815;DHT22;11069;48.988;8.450;2023-03-15T16:27:14;6.60;99.90
21815;DHT22;11069;48.988;8.450;2023-03-15T16:29:44;6.40;99.90
21815;DHT22;11069;48.988;8.450;2023-03-15T16:32:13;6.20;99.90
21815;DHT22;11069;48.988;8.450;2023-03-15T16:34:39;6.10;99.90
21815;DHT22;11069;48.988;8.450;2023-03-15T16:37:08;6.00;99.90
21815;DHT22;11069;48.988;8.450;2023-03-15T16:39:36;5.90;99.90
21815;DHT22;11069;48.988;8.450;2023-03-15T16:42:02;5.80;99.90
21815;DHT22;11069;48.988;8.450;2023-03-15T16:44:28;5.70;99.90
21815;DHT22;11069;48.988;8.450;2023-03-15T16:46:53;5.70;99.90
21815;DHT22;11069;48.988;8.450;2023-03-15T16:49:19;5.60;99.90
21815;DHT22;11069;48.988;8.450;2023-03-15T16:51:48;5.70;99.90
21815;DHT22;11069;48.988;8.450;2023-03-15T16:54:15;5.70;99.90
21815;DHT22;11069;48.988;8.450;2023-03-15T16:56:41;5.60;99.90
21815;DHT22;11069;48.988;8.450;2023-03-15T16:59:08;5.60;99.90
21815;DHT22;11069;48.988;8.450;2023-03-15T17:01:37;5.60;99.90
21815;DHT22;11069;48.988;8.450;2023-03-15T17:04:02;5.70;99.90
21815;DHT22;11069;48.988;8.450;2023-03-15T17:06:28;5.60;99.90
21815;DHT22;11069;48.988;8.450;2023-03-15T17:11:27;5.50;99.90
21815;DHT22;11069;48.988;8.450;2023-03-15T17:13:54;5.40;99.90
21815;DHT22;11069;48.988;8.450;2023-03-15T17:16:20;5.30;99.90
21815;DHT22;11069;48.988;8.450;2023-03-15T17:18:46;5.30;99.90
21815;DHT22;11069;48.988;8.450;2023-03-15T17:21:14;5.20;99.90
21815;DHT22;11069;48.988;8.450;2023-03-15T17:23:41;5.10;99.90
21815;DHT22;11069;48.988;8.450;2023-03-15T17:26:19;5.00;99.90